createdAt,value
2019-02-27T00:00:04.448Z,-420.88
2019-02-27T00:01:02.801Z,-421.04
2019-02-27T00:02:03.064Z,-420.67
2019-02-27T00:03:03.324Z,-422.76
2019-02-27T00:04:03.563Z,-423.61
2019-02-27T00:05:05.901Z,-424.48
2019-02-27T00:06:04.275Z,-421.95
2019-02-27T00:07:04.391Z,-422.21
2019-02-27T00:08:04.653Z,-419.93
2019-02-27T00:09:04.913Z,-418.82
2019-02-27T00:10:06.186Z,-418.75
2019-02-27T00:11:05.459Z,-418.97
2019-02-27T00:12:05.708Z,-423.38
2019-02-27T00:13:05.979Z,-419.45
2019-02-27T00:14:06.345Z,-420.27
2019-02-27T00:15:06.495Z,-419.61
2019-02-27T00:16:10.795Z,-418.60
2019-02-27T00:17:08.225Z,-419.46
2019-02-27T00:18:07.330Z,-420.74
2019-02-27T00:19:07.523Z,-421.22
2019-02-27T00:20:07.805Z,-419.24
2019-02-27T00:21:10.489Z,-415.36
2019-02-27T00:22:08.384Z,-418.69
2019-02-27T00:23:08.583Z,-423.70
2019-02-27T00:24:08.832Z,-422.40
2019-02-27T00:25:09.078Z,-420.88
2019-02-27T00:26:09.562Z,-421.39
2019-02-27T00:27:09.614Z,-422.28
2019-02-27T00:28:09.896Z,-418.86
2019-02-27T00:29:10.139Z,-419.64
2019-02-27T00:30:10.442Z,-421.08
2019-02-27T00:31:11.435Z,-418.55
2019-02-27T00:32:10.907Z,-421.64
2019-02-27T00:33:11.185Z,-424.53
2019-02-27T00:34:11.426Z,-419.64
2019-02-27T00:35:11.691Z,-420.55
2019-02-27T00:36:12.404Z,-423.19
2019-02-27T00:37:12.204Z,-422.27
2019-02-27T00:38:12.522Z,-421.74
2019-02-27T00:39:12.781Z,-420.68
2019-02-27T00:40:12.996Z,-424.13
2019-02-27T00:41:13.283Z,-422.93
2019-02-27T00:42:13.501Z,-424.03
2019-02-27T00:43:13.797Z,-422.83
2019-02-27T00:44:14.039Z,-423.37
2019-02-27T00:45:14.301Z,-420.70
2019-02-27T00:46:14.606Z,-422.94
2019-02-27T00:47:17.007Z,-421.76
2019-02-27T00:48:15.128Z,-425.83
2019-02-27T00:49:15.371Z,-421.16
2019-02-27T00:50:15.633Z,-422.33
2019-02-27T00:51:15.929Z,-413.86
2019-02-27T00:52:18.079Z,-420.81
2019-02-27T00:53:16.418Z,-422.69
2019-02-27T00:54:16.682Z,-422.08
2019-02-27T00:55:17.058Z,-422.19
2019-02-27T00:56:17.225Z,-424.52
2019-02-27T00:57:20.547Z,-423.40
2019-02-27T00:58:17.717Z,-424.20
2019-02-27T00:59:17.968Z,-423.29
2019-02-27T01:00:18.241Z,-423.98
2019-02-27T01:01:18.535Z,-425.69
2019-02-27T01:02:19.983Z,-423.37
2019-02-27T01:03:19.042Z,-422.59
2019-02-27T01:04:19.247Z,-421.97
2019-02-27T01:05:19.533Z,-421.07
2019-02-27T01:06:19.827Z,-424.16
2019-02-27T01:07:20.708Z,-421.44
2019-02-27T01:08:20.322Z,-423.96
2019-02-27T01:09:20.580Z,-422.97
2019-02-27T01:10:20.817Z,-424.63
2019-02-27T01:11:21.160Z,-424.40
2019-02-27T01:12:22.907Z,-421.55
2019-02-27T01:13:21.612Z,-422.55
2019-02-27T01:14:21.887Z,-420.78
2019-02-27T01:15:22.133Z,-418.81
2019-02-27T01:16:22.444Z,-420.56
2019-02-27T01:17:23.878Z,-419.62
2019-02-27T01:18:22.947Z,-421.67
2019-02-27T01:19:23.263Z,-423.34
2019-02-27T01:20:23.528Z,-422.59
2019-02-27T01:21:23.771Z,-421.09
2019-02-27T01:22:24.011Z,-421.43
2019-02-27T01:23:24.271Z,-423.44
2019-02-27T01:24:24.551Z,-426.11
2019-02-27T01:25:24.803Z,-423.58
2019-02-27T01:26:25.098Z,-423.98
2019-02-27T01:27:25.303Z,-424.64
2019-02-27T01:28:25.693Z,-422.34
2019-02-27T01:29:25.855Z,-423.13
2019-02-27T01:30:26.095Z,-423.92
2019-02-27T01:31:26.369Z,-424.71
2019-02-27T01:32:28.864Z,-425.15
2019-02-27T01:33:26.888Z,-424.22
2019-02-27T01:34:27.166Z,-425.16
2019-02-27T01:35:27.414Z,-427.41
2019-02-27T01:36:27.773Z,-426.12
2019-02-27T01:37:31.298Z,-426.70
2019-02-27T01:38:28.182Z,-423.22
2019-02-27T01:39:28.463Z,-427.64
2019-02-27T01:40:28.710Z,-426.07
2019-02-27T01:41:28.985Z,-426.96
2019-02-27T01:42:32.184Z,-426.80
2019-02-27T01:43:29.475Z,-424.45
2019-02-27T01:44:29.780Z,-425.34
2019-02-27T01:45:29.996Z,-423.85
2019-02-27T01:46:30.282Z,-424.97
2019-02-27T01:47:30.543Z,-419.56
2019-02-27T01:48:30.786Z,-419.97
2019-02-27T01:49:31.058Z,-421.79
2019-02-27T01:50:31.307Z,-420.83
2019-02-27T01:51:31.597Z,-421.02
2019-02-27T01:52:33.940Z,-419.56
2019-02-27T01:53:32.107Z,-422.61
2019-02-27T01:54:32.391Z,-420.03
2019-02-27T01:55:32.622Z,-420.66
2019-02-27T01:56:32.924Z,-420.93
2019-02-27T01:57:34.096Z,-419.35
2019-02-27T01:58:33.419Z,-420.31
2019-02-27T01:59:33.708Z,-418.97
2019-02-27T02:00:33.966Z,-416.96
2019-02-27T02:01:34.317Z,-419.82
2019-02-27T02:02:34.882Z,-422.40
2019-02-27T02:03:34.723Z,-419.15
2019-02-27T02:04:35.003Z,-420.43
2019-02-27T02:05:35.248Z,-420.76
2019-02-27T02:06:35.528Z,-420.55
2019-02-27T02:07:39.871Z,-418.42
2019-02-27T02:08:36.046Z,-417.75
2019-02-27T02:09:36.473Z,-419.43
2019-02-27T02:10:36.577Z,-418.88
2019-02-27T02:11:36.837Z,-418.40
2019-02-27T02:12:39.086Z,-419.33
2019-02-27T02:13:37.387Z,-446.91
2019-02-27T02:14:37.667Z,-446.66
2019-02-27T02:15:37.910Z,-444.78
2019-02-27T02:16:38.179Z,-446.59
2019-02-27T02:17:40.977Z,-448.84
2019-02-27T02:18:38.698Z,-446.51
2019-02-27T02:19:38.982Z,-447.67
2019-02-27T02:20:39.222Z,-449.27
2019-02-27T02:21:39.497Z,-447.81
2019-02-27T02:22:41.280Z,-447.76
2019-02-27T02:23:40.028Z,-449.54
2019-02-27T02:24:40.329Z,-448.84
2019-02-27T02:25:40.623Z,-449.14
2019-02-27T02:26:40.820Z,-446.54
2019-02-27T02:27:41.571Z,-448.29
2019-02-27T02:28:41.323Z,-447.29
2019-02-27T02:29:41.698Z,-446.26
2019-02-27T02:30:41.876Z,-444.52
2019-02-27T02:31:42.586Z,-446.09
2019-02-27T02:32:42.424Z,-446.84
2019-02-27T02:33:42.690Z,-444.11
2019-02-27T02:34:42.961Z,-447.31
2019-02-27T02:35:43.189Z,-447.90
2019-02-27T02:36:43.458Z,-447.26
2019-02-27T02:37:43.730Z,-446.72
2019-02-27T02:38:43.972Z,-446.79
2019-02-27T02:39:44.254Z,-449.92
2019-02-27T02:40:44.479Z,-451.49
2019-02-27T02:41:47.078Z,-448.86
2019-02-27T02:42:45.147Z,-450.27
2019-02-27T02:43:45.275Z,-449.14
2019-02-27T02:44:45.543Z,-447.75
2019-02-27T02:45:45.802Z,-451.57
2019-02-27T02:46:46.335Z,-448.74
2019-02-27T02:47:46.356Z,-451.48
2019-02-27T02:48:46.598Z,-449.17
2019-02-27T02:49:46.874Z,-449.41
2019-02-27T02:50:47.227Z,-448.49
2019-02-27T02:51:47.417Z,-447.52
2019-02-27T02:52:47.652Z,-449.73
2019-02-27T02:53:48.800Z,-450.17
2019-02-27T02:54:48.169Z,-450.42
2019-02-27T02:55:49.253Z,-449.36
2019-02-27T02:56:48.716Z,-450.81
2019-02-27T02:57:48.960Z,-448.60
2019-02-27T02:58:49.273Z,-451.96
2019-02-27T02:59:49.478Z,-446.45
2019-02-27T03:00:49.693Z,-426.58
2019-02-27T03:01:50.173Z,-425.24
2019-02-27T03:02:50.255Z,-424.73
2019-02-27T03:03:50.504Z,-425.20
2019-02-27T03:04:50.783Z,-423.42
2019-02-27T03:05:51.032Z,-425.17
2019-02-27T03:06:51.394Z,-424.01
2019-02-27T03:07:51.550Z,-425.91
2019-02-27T03:08:55.010Z,-424.80
2019-02-27T03:09:52.077Z,-425.78
2019-02-27T03:10:52.536Z,-425.55
2019-02-27T03:11:54.832Z,-427.65
2019-02-27T03:12:52.894Z,-423.63
2019-02-27T03:13:53.092Z,-427.64
2019-02-27T03:14:54.171Z,-426.61
2019-02-27T03:15:53.686Z,-422.48
2019-02-27T03:16:53.912Z,-428.11
2019-02-27T03:17:55.070Z,-424.80
2019-02-27T03:18:54.441Z,-426.37
2019-02-27T03:19:54.699Z,-428.86
2019-02-27T03:20:54.992Z,-428.37
2019-02-27T03:21:55.253Z,-427.20
2019-02-27T03:22:55.561Z,-427.12
2019-02-27T03:23:55.888Z,-426.79
2019-02-27T03:24:56.066Z,-424.51
2019-02-27T03:25:56.337Z,-427.97
2019-02-27T03:26:56.600Z,-426.09
2019-02-27T03:27:56.873Z,-426.40
2019-02-27T03:28:57.130Z,-426.66
2019-02-27T03:29:57.366Z,-426.18
2019-02-27T03:30:57.687Z,-427.35
2019-02-27T03:32:00.163Z,-426.08
2019-02-27T03:32:58.202Z,-427.86
2019-02-27T03:34:05.802Z,-428.94
2019-02-27T03:34:59.691Z,-427.57
2019-02-27T03:35:59.878Z,-426.81
2019-02-27T03:36:59.220Z,-426.64
2019-02-27T03:37:59.507Z,-427.07
2019-02-27T03:39:00.167Z,-427.36
2019-02-27T03:40:00.225Z,-428.21
2019-02-27T03:41:00.279Z,-425.85
2019-02-27T03:42:00.563Z,-426.54
2019-02-27T03:43:00.840Z,-429.03
2019-02-27T03:44:01.087Z,-427.68
2019-02-27T03:45:01.318Z,-428.39
2019-02-27T03:46:03.090Z,-428.42
2019-02-27T03:47:01.831Z,-428.20
2019-02-27T03:48:02.202Z,-426.87
2019-02-27T03:49:03.569Z,-427.15
2019-02-27T03:50:02.627Z,-427.83
2019-02-27T03:51:02.903Z,-426.82
2019-02-27T03:52:03.128Z,-429.12
2019-02-27T03:53:03.428Z,-428.35
2019-02-27T03:54:03.716Z,-428.14
2019-02-27T03:55:03.947Z,-426.42
2019-02-27T03:56:08.698Z,-424.19
2019-02-27T03:57:05.488Z,-425.83
2019-02-27T03:58:04.752Z,-428.38
2019-02-27T03:59:06.065Z,-427.86
2019-02-27T04:00:05.280Z,-427.23
2019-02-27T04:01:05.539Z,-453.67
2019-02-27T04:02:06.159Z,-451.56
2019-02-27T04:03:06.074Z,-450.41
2019-02-27T04:04:06.339Z,-452.20
2019-02-27T04:05:07.375Z,-452.99
2019-02-27T04:06:06.856Z,-451.77
2019-02-27T04:07:07.107Z,-454.15
2019-02-27T04:08:08.304Z,-448.82
2019-02-27T04:09:07.628Z,-448.23
2019-02-27T04:10:08.346Z,-451.56
2019-02-27T04:11:08.174Z,-450.48
2019-02-27T04:12:08.426Z,-425.71
2019-02-27T04:13:08.834Z,-425.83
2019-02-27T04:14:08.945Z,-424.85
2019-02-27T04:15:09.237Z,-426.99
2019-02-27T04:16:09.494Z,-426.92
2019-02-27T04:17:09.741Z,-426.82
2019-02-27T04:18:10.021Z,-423.17
2019-02-27T04:19:10.248Z,-426.33
2019-02-27T04:20:14.602Z,-424.48
2019-02-27T04:21:10.894Z,-425.43
2019-02-27T04:22:11.047Z,-426.21
2019-02-27T04:23:12.434Z,-426.20
2019-02-27T04:24:11.583Z,-427.29
2019-02-27T04:25:11.831Z,-424.50
2019-02-27T04:26:12.132Z,-427.18
2019-02-27T04:27:12.381Z,-423.72
2019-02-27T04:28:12.636Z,-426.55
2019-02-27T04:29:12.952Z,-425.57
2019-02-27T04:30:14.700Z,-426.30
2019-02-27T04:31:13.436Z,-422.50
2019-02-27T04:32:13.682Z,-423.93
2019-02-27T04:33:13.956Z,-425.52
2019-02-27T04:34:14.232Z,-425.66
2019-02-27T04:35:14.479Z,-427.32
2019-02-27T04:36:14.767Z,-429.34
2019-02-27T04:37:15.026Z,-424.51
2019-02-27T04:38:15.340Z,-425.60
2019-02-27T04:39:15.540Z,-428.42
2019-02-27T04:40:15.785Z,-428.11
2019-02-27T04:41:17.807Z,-423.96
2019-02-27T04:42:16.290Z,-427.17
2019-02-27T04:43:16.568Z,-427.16
2019-02-27T04:44:16.845Z,-428.34
2019-02-27T04:45:17.096Z,-428.67
2019-02-27T04:46:18.890Z,-424.59
2019-02-27T04:47:17.616Z,-424.50
2019-02-27T04:48:17.873Z,-425.67
2019-02-27T04:49:18.379Z,-429.19
2019-02-27T04:50:18.396Z,-426.38
2019-02-27T04:51:18.672Z,-427.66
2019-02-27T04:52:18.942Z,-428.49
2019-02-27T04:53:19.160Z,-429.11
2019-02-27T04:54:19.537Z,-428.38
2019-02-27T04:55:19.686Z,-425.95
2019-02-27T04:56:23.105Z,-426.20
2019-02-27T04:57:20.225Z,-417.85
2019-02-27T04:58:20.465Z,-417.57
2019-02-27T04:59:20.771Z,-418.88
2019-02-27T05:00:21.002Z,-422.60
2019-02-27T05:01:21.285Z,-424.61
2019-02-27T05:02:21.606Z,-427.12
2019-02-27T05:03:21.773Z,-424.33
2019-02-27T05:04:22.037Z,-423.43
2019-02-27T05:05:22.300Z,-425.67
2019-02-27T05:06:22.583Z,-426.46
2019-02-27T05:07:22.831Z,-425.97
2019-02-27T05:08:26.925Z,-428.11
2019-02-27T05:09:23.357Z,-419.72
2019-02-27T05:10:23.639Z,-424.71
2019-02-27T05:11:23.869Z,-423.06
2019-02-27T05:12:24.130Z,-426.07
2019-02-27T05:13:24.393Z,-427.42
2019-02-27T05:14:24.789Z,-427.58
2019-02-27T05:15:24.913Z,-427.56
2019-02-27T05:16:25.179Z,-422.77
2019-02-27T05:17:25.454Z,-426.40
2019-02-27T05:18:29.240Z,-422.42
2019-02-27T05:19:26.084Z,-424.05
2019-02-27T05:20:26.204Z,-423.96
2019-02-27T05:21:26.484Z,-423.77
2019-02-27T05:22:27.323Z,-426.63
2019-02-27T05:23:27.006Z,-424.83
2019-02-27T05:24:27.284Z,-423.41
2019-02-27T05:25:27.526Z,-422.20
2019-02-27T05:26:27.845Z,-425.17
2019-02-27T05:27:28.188Z,-421.49
2019-02-27T05:28:28.313Z,-423.80
2019-02-27T05:29:28.595Z,-423.49
2019-02-27T05:30:28.836Z,-424.26
2019-02-27T05:31:29.093Z,-423.53
2019-02-27T05:32:29.385Z,-423.48
2019-02-27T05:33:35.638Z,-425.18
2019-02-27T05:34:30.928Z,-426.33
2019-02-27T05:35:30.261Z,-414.84
2019-02-27T05:36:31.621Z,-411.93
2019-02-27T05:37:30.705Z,-414.66
2019-02-27T05:38:30.963Z,-410.98
2019-02-27T05:39:31.240Z,-416.95
2019-02-27T05:40:31.488Z,-419.50
2019-02-27T05:41:32.911Z,-420.18
2019-02-27T05:42:32.044Z,-420.88
2019-02-27T05:43:32.302Z,-410.87
2019-02-27T05:44:32.530Z,-415.85
2019-02-27T05:45:32.785Z,-419.81
2019-02-27T05:46:33.050Z,-416.11
2019-02-27T05:47:33.359Z,-419.14
2019-02-27T05:48:33.562Z,-420.59
2019-02-27T05:49:33.824Z,-420.95
2019-02-27T05:50:34.274Z,-421.10
2019-02-27T05:51:34.435Z,-423.63
2019-02-27T05:52:34.736Z,-421.92
2019-02-27T05:53:34.893Z,-423.76
2019-02-27T05:54:35.173Z,-423.79
2019-02-27T05:55:39.048Z,-422.93
2019-02-27T05:56:35.680Z,-420.17
2019-02-27T05:57:35.973Z,-420.75
2019-02-27T05:58:36.230Z,-423.79
2019-02-27T05:59:36.495Z,-421.83
2019-02-27T06:00:37.001Z,-420.05
2019-02-27T06:01:38.139Z,-421.47
2019-02-27T06:02:37.270Z,-422.07
2019-02-27T06:03:37.491Z,-424.32
2019-02-27T06:04:37.769Z,-420.20
2019-02-27T06:05:38.010Z,-423.27
2019-02-27T06:06:38.260Z,-423.14
2019-02-27T06:07:38.549Z,-418.38
2019-02-27T06:08:38.869Z,-419.95
2019-02-27T06:09:41.368Z,-422.50
2019-02-27T06:10:39.293Z,-417.99
2019-02-27T06:11:39.575Z,-419.24
2019-02-27T06:12:40.715Z,-418.95
2019-02-27T06:13:40.121Z,-421.86
2019-02-27T06:14:40.388Z,-419.61
2019-02-27T06:15:40.629Z,-418.96
2019-02-27T06:16:41.037Z,-419.96
2019-02-27T06:17:43.354Z,-420.64
2019-02-27T06:18:41.410Z,-421.49
2019-02-27T06:19:41.677Z,-421.78
2019-02-27T06:20:42.547Z,-423.96
2019-02-27T06:21:42.180Z,-421.63
2019-02-27T06:22:42.457Z,-422.38
2019-02-27T06:23:42.696Z,-422.73
2019-02-27T06:24:45.507Z,-420.67
2019-02-27T06:25:43.208Z,-421.89
2019-02-27T06:26:43.473Z,-420.76
2019-02-27T06:27:43.748Z,-419.43
2019-02-27T06:28:43.992Z,-418.70
2019-02-27T06:29:44.260Z,-420.62
2019-02-27T06:30:44.517Z,-421.00
2019-02-27T06:31:44.774Z,-419.52
2019-02-27T06:32:45.111Z,-421.73
2019-02-27T06:33:45.855Z,-419.09
2019-02-27T06:34:45.567Z,-416.16
2019-02-27T06:35:45.820Z,-419.05
2019-02-27T06:36:46.082Z,-417.56
2019-02-27T06:37:50.325Z,-422.65
2019-02-27T06:38:46.625Z,-417.40
2019-02-27T06:39:46.877Z,-409.16
2019-02-27T06:40:47.124Z,-411.06
2019-02-27T06:41:49.712Z,-413.30
2019-02-27T06:42:47.666Z,-415.67
2019-02-27T06:43:47.915Z,-415.85
2019-02-27T06:44:48.151Z,-417.56
2019-02-27T06:45:48.445Z,-420.13
2019-02-27T06:46:51.132Z,-420.44
2019-02-27T06:47:48.987Z,-418.85
2019-02-27T06:48:49.242Z,-415.59
2019-02-27T06:49:51.833Z,-417.86
2019-02-27T06:50:49.770Z,-418.29
2019-02-27T06:51:50.026Z,-416.01
2019-02-27T06:52:50.311Z,-416.67
2019-02-27T06:53:50.562Z,-419.30
2019-02-27T06:54:52.290Z,-417.24
2019-02-27T06:55:51.076Z,-418.61
2019-02-27T06:56:51.337Z,-417.59
2019-02-27T06:57:51.726Z,-416.29
2019-02-27T06:58:55.201Z,-415.92
2019-02-27T06:59:52.061Z,-413.08
2019-02-27T07:00:52.315Z,-416.80
2019-02-27T07:01:52.570Z,-414.11
2019-02-27T07:02:55.268Z,-413.58
2019-02-27T07:03:53.105Z,-412.97
2019-02-27T07:04:53.338Z,-416.07
2019-02-27T07:05:53.873Z,-416.60
2019-02-27T07:06:55.352Z,-414.21
2019-02-27T07:07:54.177Z,-416.38
2019-02-27T07:08:54.435Z,-416.97
2019-02-27T07:09:54.683Z,-413.71
2019-02-27T07:10:57.497Z,-412.02
2019-02-27T07:11:55.200Z,-416.60
2019-02-27T07:12:55.495Z,-416.63
2019-02-27T07:13:55.791Z,-420.03
2019-02-27T07:14:56.040Z,-417.47
2019-02-27T07:15:56.274Z,-415.95
2019-02-27T07:16:57.357Z,-412.32
2019-02-27T07:17:56.830Z,-411.80
2019-02-27T07:18:57.079Z,-412.46
2019-02-27T07:19:57.320Z,-410.53
2019-02-27T07:20:58.315Z,-413.88
2019-02-27T07:21:57.848Z,-416.62
2019-02-27T07:22:58.208Z,-415.35
2019-02-27T07:23:58.656Z,-414.79
2019-02-27T07:24:58.625Z,-418.60
2019-02-27T07:25:58.907Z,-417.47
2019-02-27T07:26:59.137Z,-416.01
2019-02-27T07:27:59.402Z,-416.82
2019-02-27T07:28:59.681Z,-421.03
2019-02-27T07:29:59.946Z,-418.29
2019-02-27T07:31:00.334Z,-417.50
2019-02-27T07:32:00.454Z,-416.12
2019-02-27T07:33:00.711Z,-418.38
2019-02-27T07:34:00.993Z,-419.57
2019-02-27T07:35:01.255Z,-419.00
2019-02-27T07:36:03.569Z,-418.62
2019-02-27T07:37:01.773Z,-420.41
2019-02-27T07:38:02.051Z,-418.10
2019-02-27T07:39:02.339Z,-417.40
2019-02-27T07:40:02.539Z,-420.88
2019-02-27T07:41:02.821Z,-415.61
2019-02-27T07:42:03.063Z,-416.47
2019-02-27T07:43:05.706Z,-417.70
2019-02-27T07:44:03.603Z,-414.42
2019-02-27T07:45:03.841Z,-412.02
2019-02-27T07:46:04.123Z,-414.90
2019-02-27T07:47:04.440Z,-415.92
2019-02-27T07:48:04.618Z,-416.28
2019-02-27T07:49:04.902Z,-418.09
2019-02-27T07:50:06.197Z,-417.40
2019-02-27T07:51:05.420Z,-417.94
2019-02-27T07:52:05.676Z,-417.89
2019-02-27T07:53:05.939Z,-414.44
2019-02-27T07:54:06.245Z,-417.53
2019-02-27T07:55:18.638Z,-416.10
2019-02-27T07:56:07.798Z,-417.23
2019-02-27T07:57:07.000Z,-404.16
2019-02-27T07:58:07.259Z,-407.46
2019-02-27T07:59:07.552Z,-407.66
2019-02-27T08:00:07.770Z,-410.82
2019-02-27T08:01:08.057Z,-410.52
2019-02-27T08:02:08.283Z,-409.48
2019-02-27T08:03:09.436Z,-410.39
2019-02-27T08:04:08.992Z,-413.88
2019-02-27T08:05:09.085Z,-412.40
2019-02-27T08:06:09.590Z,-412.04
2019-02-27T08:07:10.046Z,-410.97
2019-02-27T08:08:09.861Z,-416.16
2019-02-27T08:09:10.143Z,-412.42
2019-02-27T08:10:10.595Z,-413.97
2019-02-27T08:11:13.414Z,-414.43
2019-02-27T08:12:10.988Z,-412.85
2019-02-27T08:13:11.157Z,-411.37
2019-02-27T08:14:12.896Z,-413.06
2019-02-27T08:15:13.455Z,-413.88
2019-02-27T08:16:11.960Z,-411.54
2019-02-27T08:17:17.672Z,-410.73
2019-02-27T08:18:13.525Z,-408.11
2019-02-27T08:19:12.737Z,-411.36
2019-02-27T08:20:13.046Z,-410.99
2019-02-27T08:21:13.279Z,-412.00
2019-02-27T08:22:13.513Z,-412.34
2019-02-27T08:23:15.474Z,-411.95
2019-02-27T08:24:14.445Z,-408.15
2019-02-27T08:25:14.289Z,-411.36
2019-02-27T08:26:14.580Z,-412.01
2019-02-27T08:27:14.823Z,-413.85
2019-02-27T08:28:15.146Z,-408.51
2019-02-27T08:29:15.364Z,-412.11
2019-02-27T08:30:15.600Z,-413.14
2019-02-27T08:31:15.879Z,-413.86
2019-02-27T08:32:16.128Z,-413.87
2019-02-27T08:33:16.395Z,-412.64
2019-02-27T08:34:16.673Z,-413.74
2019-02-27T08:35:16.931Z,-411.71
2019-02-27T08:36:17.208Z,-412.02
2019-02-27T08:37:17.536Z,-412.08
2019-02-27T08:38:17.697Z,-410.33
2019-02-27T08:39:17.991Z,-412.09
2019-02-27T08:40:18.226Z,-413.63
2019-02-27T08:41:18.481Z,-414.65
2019-02-27T08:42:18.738Z,-414.20
2019-02-27T08:43:19.000Z,-417.64
2019-02-27T08:44:19.284Z,-417.05
2019-02-27T08:45:20.490Z,-412.79
2019-02-27T08:46:19.786Z,-414.08
2019-02-27T08:47:20.043Z,-415.36
2019-02-27T08:48:20.304Z,-413.22
2019-02-27T08:49:24.024Z,-413.99
2019-02-27T08:50:20.837Z,-414.30
2019-02-27T08:51:21.095Z,-414.21
2019-02-27T08:52:21.327Z,-415.95
2019-02-27T08:53:25.838Z,-415.02
2019-02-27T08:54:22.875Z,-412.64
2019-02-27T08:55:22.638Z,-415.66
2019-02-27T08:56:22.383Z,-413.60
2019-02-27T08:57:22.635Z,-416.54
2019-02-27T08:58:22.919Z,-415.59
2019-02-27T08:59:23.196Z,-414.91
2019-02-27T09:00:23.520Z,-412.49
2019-02-27T09:01:23.752Z,-413.50
2019-02-27T09:02:24.159Z,-415.17
2019-02-27T09:03:24.214Z,-416.41
2019-02-27T09:04:24.504Z,-415.90
2019-02-27T09:05:24.771Z,-414.62
2019-02-27T09:06:27.340Z,-417.18
2019-02-27T09:07:25.281Z,-415.43
2019-02-27T09:08:25.529Z,-415.95
2019-02-27T09:09:25.823Z,-415.10
2019-02-27T09:10:26.855Z,-416.41
2019-02-27T09:11:26.312Z,-415.09
2019-02-27T09:12:26.593Z,-416.21
2019-02-27T09:13:26.832Z,-413.57
2019-02-27T09:14:27.110Z,-415.83
2019-02-27T09:15:27.341Z,-411.32
2019-02-27T09:16:27.623Z,-415.78
2019-02-27T09:17:27.949Z,-416.13
2019-02-27T09:18:28.253Z,-417.71
2019-02-27T09:19:28.400Z,-415.85
2019-02-27T09:20:28.656Z,-413.83
2019-02-27T09:21:28.950Z,-411.66
2019-02-27T09:22:29.216Z,-414.28
2019-02-27T09:23:29.455Z,-417.13
2019-02-27T09:24:29.733Z,-418.49
2019-02-27T09:25:29.985Z,-418.79
2019-02-27T09:26:30.306Z,-413.27
2019-02-27T09:27:33.024Z,-419.11
2019-02-27T09:28:30.758Z,-419.42
2019-02-27T09:29:31.037Z,-415.00
2019-02-27T09:30:31.266Z,-418.13
2019-02-27T09:31:31.541Z,-415.80
2019-02-27T09:32:31.817Z,-414.69
2019-02-27T09:33:38.581Z,-419.33
2019-02-27T09:34:33.450Z,-426.76
2019-02-27T09:35:34.501Z,-425.19
2019-02-27T09:36:33.850Z,-419.16
2019-02-27T09:37:33.125Z,-427.84
2019-02-27T09:38:33.365Z,-420.65
2019-02-27T09:39:35.038Z,-429.42
2019-02-27T09:40:38.152Z,-427.18
2019-02-27T09:41:34.140Z,-430.28
2019-02-27T09:42:34.445Z,-427.36
2019-02-27T09:43:34.667Z,-426.04
2019-02-27T09:44:36.544Z,-431.71
2019-02-27T09:45:35.370Z,-427.15
2019-02-27T09:46:35.443Z,-434.98
2019-02-27T09:47:35.695Z,-433.56
2019-02-27T09:48:35.951Z,-429.41
2019-02-27T09:49:37.907Z,-428.14
2019-02-27T09:50:36.524Z,-430.27
2019-02-27T09:51:36.792Z,-431.10
2019-02-27T09:52:37.013Z,-429.80
2019-02-27T09:53:37.471Z,-425.90
2019-02-27T09:54:37.538Z,-430.70
2019-02-27T09:55:37.786Z,-429.44
2019-02-27T09:56:38.052Z,-404.26
2019-02-27T09:57:38.316Z,-428.00
2019-02-27T09:58:38.576Z,-433.39
2019-02-27T09:59:39.987Z,-432.54
2019-02-27T10:00:39.110Z,-438.41
2019-02-27T10:01:39.365Z,-437.28
2019-02-27T10:02:39.645Z,-435.97
2019-02-27T10:03:39.883Z,-432.58
2019-02-27T10:04:40.177Z,-432.09
2019-02-27T10:05:40.885Z,-428.78
2019-02-27T10:06:42.749Z,-429.87
2019-02-27T10:07:41.075Z,-427.12
2019-02-27T10:08:41.185Z,-429.11
2019-02-27T10:09:41.458Z,-434.11
2019-02-27T10:10:44.853Z,-438.16
2019-02-27T10:11:42.046Z,-433.09
2019-02-27T10:12:42.372Z,-437.14
2019-02-27T10:13:42.507Z,-428.11
2019-02-27T10:14:42.754Z,-430.38
2019-02-27T10:15:43.096Z,-441.25
2019-02-27T10:16:43.301Z,-430.11
2019-02-27T10:17:43.781Z,-430.14
2019-02-27T10:18:43.816Z,-437.75
2019-02-27T10:19:44.075Z,-438.31
2019-02-27T10:20:44.357Z,-436.55
2019-02-27T10:21:45.288Z,-434.76
2019-02-27T10:22:44.890Z,-432.39
2019-02-27T10:23:45.193Z,-435.45
2019-02-27T10:24:45.375Z,-431.39
2019-02-27T10:25:45.678Z,-431.64
2019-02-27T10:26:45.885Z,-429.66
2019-02-27T10:27:47.271Z,-435.03
2019-02-27T10:28:46.440Z,-433.32
2019-02-27T10:29:47.960Z,-427.47
2019-02-27T10:30:49.858Z,-431.90
2019-02-27T10:31:47.273Z,-437.67
2019-02-27T10:32:47.540Z,-432.28
2019-02-27T10:33:47.714Z,-435.61
2019-02-27T10:34:51.039Z,-433.60
2019-02-27T10:35:49.273Z,-433.53
2019-02-27T10:36:48.633Z,-434.81
2019-02-27T10:37:50.433Z,-434.39
2019-02-27T10:38:49.033Z,-431.18
2019-02-27T10:39:49.325Z,-427.98
2019-02-27T10:40:49.712Z,-430.65
2019-02-27T10:41:50.602Z,-428.00
2019-02-27T10:42:50.273Z,-431.14
2019-02-27T10:43:50.354Z,-433.41
2019-02-27T10:44:50.608Z,-437.69
2019-02-27T10:45:50.913Z,-437.21
2019-02-27T10:46:52.053Z,-434.93
2019-02-27T10:47:51.412Z,-428.93
2019-02-27T10:48:51.777Z,-434.51
2019-02-27T10:49:51.911Z,-429.67
2019-02-27T10:50:52.202Z,-430.08
2019-02-27T10:51:52.431Z,-435.59
2019-02-27T10:52:52.711Z,-437.37
2019-02-27T10:53:52.937Z,-428.84
2019-02-27T10:54:53.219Z,-435.35
2019-02-27T10:55:53.510Z,-440.53
2019-02-27T10:56:56.391Z,-437.44
2019-02-27T10:57:53.994Z,-436.27
2019-02-27T10:58:54.244Z,-431.73
2019-02-27T10:59:54.493Z,-442.56
2019-02-27T11:00:54.802Z,-437.39
2019-02-27T11:01:55.028Z,-439.11
2019-02-27T11:02:55.286Z,-432.79
2019-02-27T11:03:55.547Z,-431.99
2019-02-27T11:04:55.855Z,-431.71
2019-02-27T11:05:56.055Z,-441.57
2019-02-27T11:06:56.315Z,-434.52
2019-02-27T11:07:56.584Z,-438.07
2019-02-27T11:08:56.871Z,-434.26
2019-02-27T11:09:57.118Z,-438.90
2019-02-27T11:10:57.405Z,-429.94
2019-02-27T11:11:57.634Z,-432.17
2019-02-27T11:12:57.944Z,-431.62
2019-02-27T11:13:58.262Z,-430.86
2019-02-27T11:14:58.428Z,-441.03
2019-02-27T11:15:58.690Z,-432.32
2019-02-27T11:17:02.165Z,-431.08
2019-02-27T11:18:04.199Z,-441.06
2019-02-27T11:19:00.497Z,-437.95
2019-02-27T11:19:59.738Z,-437.37
2019-02-27T11:21:00.048Z,-438.10
2019-02-27T11:22:00.389Z,-445.66
2019-02-27T11:23:00.519Z,-442.21
2019-02-27T11:24:01.018Z,-437.78
2019-02-27T11:25:01.029Z,-430.26
2019-02-27T11:26:01.327Z,-441.13
2019-02-27T11:27:03.373Z,-436.52
2019-02-27T11:28:01.828Z,-441.53
2019-02-27T11:29:02.114Z,-437.44
2019-02-27T11:30:03.012Z,-441.16
2019-02-27T11:31:02.608Z,-437.91
2019-02-27T11:32:02.862Z,-445.40
2019-02-27T11:33:03.116Z,-445.25
2019-02-27T11:34:05.124Z,-443.38
2019-02-27T11:35:03.641Z,-443.25
2019-02-27T11:36:05.598Z,-437.51
2019-02-27T11:37:04.295Z,-433.78
2019-02-27T11:38:04.446Z,-437.55
2019-02-27T11:39:04.755Z,-435.13
2019-02-27T11:40:05.375Z,-439.37
2019-02-27T11:41:05.219Z,-433.26
2019-02-27T11:42:05.461Z,-438.89
2019-02-27T11:43:06.993Z,-441.42
2019-02-27T11:44:05.996Z,-443.84
2019-02-27T11:45:06.221Z,-447.21
2019-02-27T11:46:06.570Z,-442.70
2019-02-27T11:47:10.829Z,-438.14
2019-02-27T11:48:07.056Z,-444.16
2019-02-27T11:49:07.318Z,-446.24
2019-02-27T11:50:07.547Z,-444.54
2019-02-27T11:51:07.844Z,-442.59
2019-02-27T11:52:08.083Z,-442.02
2019-02-27T11:53:08.344Z,-448.87
2019-02-27T11:54:09.173Z,-437.23
2019-02-27T11:55:08.986Z,-440.21
2019-02-27T11:56:09.156Z,-434.98
2019-02-27T11:57:09.408Z,-433.82
2019-02-27T11:58:09.673Z,-438.50
2019-02-27T11:59:10.263Z,-439.56
2019-02-27T12:00:10.185Z,-441.80
2019-02-27T12:01:12.040Z,-431.75
2019-02-27T12:02:10.696Z,-433.75
2019-02-27T12:03:11.933Z,-437.58
2019-02-27T12:04:11.239Z,-424.31
2019-02-27T12:05:11.483Z,-423.93
2019-02-27T12:06:11.747Z,-413.05
2019-02-27T12:07:12.246Z,-419.81
2019-02-27T12:08:12.276Z,-416.77